sensor_id;sensor_type;location;lat;lon;timestamp;P1;durP1;ratioP1;P2;durP2;ratioP2
64387;SDS011;50709;52.648;4.764;2022-11-14T00:02:18;15.00;;;9.70;;
64387;SDS011;50709;52.648;4.764;2022-11-14T00:04:47;20.27;;;10.30;;
64387;SDS011;50709;52.648;4.764;2022-11-14T00:07:13;16.27;;;10.07;;
64387;SDS011;50709;52.648;4.764;2022-11-14T00:09:39;13.85;;;9.60;;
64387;SDS011;50709;52.648;4.764;2022-11-14T00:12:07;16.67;;;9.93;;
64387;SDS011;50709;52.648;4.764;2022-11-14T00:14:33;17.58;;;10.48;;
64387;SDS011;50709;52.648;4.764;2022-11-14T00:16:58;16.90;;;10.40;;
64387;SDS011;50709;52.648;4.764;2022-11-14T00:19:24;17.80;;;10.70;;
64387;SDS011;50709;52.648;4.764;2022-11-14T00:21:49;18.50;;;9.88;;
64387;SDS011;50709;52.648;4.764;2022-11-14T00:24:16;17.40;;;10.32;;
64387;SDS011;50709;52.648;4.764;2022-11-14T00:26:41;18.33;;;10.88;;
64387;SDS011;50709;52.648;4.764;2022-11-14T00:29:07;17.05;;;10.18;;
64387;SDS011;50709;52.648;4.764;2022-11-14T00:31:34;16.63;;;10.00;;
64387;SDS011;50709;52.648;4.764;2022-11-14T00:33:59;19.52;;;10.25;;
64387;SDS011;50709;52.648;4.764;2022-11-14T00:36:25;18.08;;;10.27;;
64387;SDS011;50709;52.648;4.764;2022-11-14T00:38:53;16.20;;;10.25;;
64387;SDS011;50709;52.648;4.764;2022-11-14T00:41:19;16.63;;;10.48;;
64387;SDS011;50709;52.648;4.764;2022-11-14T00:43:45;16.33;;;9.95;;
64387;SDS011;50709;52.648;4.764;2022-11-14T00:46:10;18.67;;;10.90;;
64387;SDS011;50709;52.648;4.764;2022-11-14T00:48:36;21.70;;;10.75;;
64387;SDS011;50709;52.648;4.764;2022-11-14T00:51:01;21.15;;;11.50;;
64387;SDS011;50709;52.648;4.764;2022-11-14T00:53:27;20.42;;;11.38;;
64387;SDS011;50709;52.648;4.764;2022-11-14T00:55:52;22.73;;;11.38;;
64387;SDS011;50709;52.648;4.764;2022-11-14T00:58:17;23.67;;;11.73;;
64387;SDS011;50709;52.648;4.764;2022-11-14T01:00:43;22.25;;;10.95;;
64387;SDS011;50709;52.648;4.764;2022-11-14T01:03:08;23.80;;;11.82;;
64387;SDS011;50709;52.648;4.764;2022-11-14T01:05:38;21.98;;;11.52;;
64387;SDS011;50709;52.648;4.764;2022-11-14T01:08:05;23.42;;;11.40;;
64387;SDS011;50709;52.648;4.764;2022-11-14T01:10:30;20.77;;;11.23;;
64387;SDS011;50709;52.648;4.764;2022-11-14T01:12:55;25.55;;;12.73;;
64387;SDS011;50709;52.648;4.764;2022-11-14T01:15:21;22.10;;;11.95;;
64387;SDS011;50709;52.648;4.764;2022-11-14T01:17:46;23.30;;;12.25;;
64387;SDS011;50709;52.648;4.764;2022-11-14T01:20:11;27.40;;;12.85;;
64387;SDS011;50709;52.648;4.764;2022-11-14T01:22:37;25.40;;;12.40;;
64387;SDS011;50709;52.648;4.764;2022-11-14T01:25:02;25.85;;;12.45;;
64387;SDS011;50709;52.648;4.764;2022-11-14T01:27:30;27.33;;;12.63;;
64387;SDS011;50709;52.648;4.764;2022-11-14T01:29:55;26.65;;;12.20;;
64387;SDS011;50709;52.648;4.764;2022-11-14T01:32:21;25.85;;;11.93;;
64387;SDS011;50709;52.648;4.764;2022-11-14T01:34:46;26.75;;;12.93;;
64387;SDS011;50709;52.648;4.764;2022-11-14T01:37:11;28.70;;;13.70;;
64387;SDS011;50709;52.648;4.764;2022-11-14T01:39:37;25.45;;;13.18;;
64387;SDS011;50709;52.648;4.764;2022-11-14T01:42:02;28.63;;;13.35;;
64387;SDS011;50709;52.648;4.764;2022-11-14T01:44:47;28.60;;;13.57;;
64387;SDS011;50709;52.648;4.764;2022-11-14T01:47:22;26.63;;;12.45;;
64387;SDS011;50709;52.648;4.764;2022-11-14T01:49:57;28.30;;;13.52;;
64387;SDS011;50709;52.648;4.764;2022-11-14T01:52:24;27.67;;;12.90;;
64387;SDS011;50709;52.648;4.764;2022-11-14T01:54:53;27.90;;;12.68;;
64387;SDS011;50709;52.648;4.764;2022-11-14T01:57:22;27.67;;;12.90;;
64387;SDS011;50709;52.648;4.764;2022-11-14T01:59:51;29.38;;;13.85;;
64387;SDS011;50709;52.648;4.764;2022-11-14T02:02:20;27.40;;;13.32;;
64387;SDS011;50709;52.648;4.764;2022-11-14T02:04:59;24.63;;;13.43;;
64387;SDS011;50709;52.648;4.764;2022-11-14T02:07:31;27.52;;;13.40;;
64387;SDS011;50709;52.648;4.764;2022-11-14T02:09:59;25.35;;;12.30;;
64387;SDS011;50709;52.648;4.764;2022-11-14T02:12:27;28.58;;;12.85;;
64387;SDS011;50709;52.648;4.764;2022-11-14T02:14:54;29.85;;;13.75;;
64387;SDS011;50709;52.648;4.764;2022-11-14T02:17:22;27.60;;;13.05;;
64387;SDS011;50709;52.648;4.764;2022-11-14T02:19:52;27.48;;;13.07;;
64387;SDS011;50709;52.648;4.764;2022-11-14T02:22:19;29.52;;;13.10;;
64387;SDS011;50709;52.648;4.764;2022-11-14T02:24:45;31.50;;;14.02;;
64387;SDS011;50709;52.648;4.764;2022-11-14T02:27:11;29.05;;;12.45;;
64387;SDS011;50709;52.648;4.764;2022-11-14T02:29:38;28.58;;;13.50;;
64387;SDS011;50709;52.648;4.764;2022-11-14T02:32:04;30.05;;;12.85;;
64387;SDS011;50709;52.648;4.764;2022-11-14T02:34:29;28.58;;;13.32;;
64387;SDS011;50709;52.648;4.764;2022-11-14T02:36:55;27.67;;;12.98;;
64387;SDS011;50709;52.648;4.764;2022-11-14T02:39:20;31.65;;;13.98;;
64387;SDS011;50709;52.648;4.764;2022-11-14T02:41:46;27.17;;;13.15;;
64387;SDS011;50709;52.648;4.764;2022-11-14T02:44:11;30.73;;;14.05;;
64387;SDS011;50709;52.648;4.764;2022-11-14T02:46:37;32.55;;;14.38;;
64387;SDS011;50709;52.648;4.764;2022-11-14T02:49:02;34.20;;;13.80;;
64387;SDS011;50709;52.648;4.764;2022-11-14T02:51:27;27.63;;;12.93;;
64387;SDS011;50709;52.648;4.764;2022-11-14T02:53:53;29.58;;;13.68;;
64387;SDS011;50709;52.648;4.764;2022-11-14T02:56:18;32.35;;;14.07;;
64387;SDS011;50709;52.648;4.764;2022-11-14T02:58:43;29.48;;;13.93;;
64387;SDS011;50709;52.648;4.764;2022-11-14T03:01:09;30.38;;;12.95;;
64387;SDS011;50709;52.648;4.764;2022-11-14T03:03:34;27.23;;;12.80;;
64387;SDS011;50709;52.648;4.764;2022-11-14T03:06:00;29.23;;;12.98;;
64387;SDS011;50709;52.648;4.764;2022-11-14T03:08:26;34.42;;;14.88;;
64387;SDS011;50709;52.648;4.764;2022-11-14T03:10:52;30.55;;;13.10;;
64387;SDS011;50709;52.648;4.764;2022-11-14T03:13:18;32.60;;;14.25;;
64387;SDS011;50709;52.648;4.764;2022-11-14T03:15:43;28.77;;;13.15;;
64387;SDS011;50709;52.648;4.764;2022-11-14T03:18:09;32.45;;;13.88;;
64387;SDS011;50709;52.648;4.764;2022-11-14T03:20:34;28.83;;;12.15;;
64387;SDS011;50709;52.648;4.764;2022-11-14T03:22:59;24.48;;;12.48;;
64387;SDS011;50709;52.648;4.764;2022-11-14T03:25:25;31.23;;;13.88;;
64387;SDS011;50709;52.648;4.764;2022-11-14T03:27:50;28.98;;;12.55;;
64387;SDS011;50709;52.648;4.764;2022-11-14T03:30:16;27.75;;;12.63;;
64387;SDS011;50709;52.648;4.764;2022-11-14T03:32:42;30.17;;;12.63;;
64387;SDS011;50709;52.648;4.764;2022-11-14T03:35:08;33.92;;;14.35;;
64387;SDS011;50709;52.648;4.764;2022-11-14T03:37:33;31.48;;;12.93;;
64387;SDS011;50709;52.648;4.764;2022-11-14T03:39:58;28.90;;;13.80;;
64387;SDS011;50709;52.648;4.764;2022-11-14T03:42:24;30.42;;;13.80;;
64387;SDS011;50709;52.648;4.764;2022-11-14T03:44:49;31.85;;;14.13;;
64387;SDS011;50709;52.648;4.764;2022-11-14T03:47:14;29.98;;;13.63;;
64387;SDS011;50709;52.648;4.764;2022-11-14T03:49:39;34.70;;;13.15;;
64387;SDS011;50709;52.648;4.764;2022-11-14T03:52:05;30.58;;;13.43;;
64387;SDS011;50709;52.648;4.764;2022-11-14T03:54:30;28.70;;;12.18;;
64387;SDS011;50709;52.648;4.764;2022-11-14T03:56:55;33.67;;;13.70;;
64387;SDS011;50709;52.648;4.764;2022-11-14T03:59:21;31.63;;;14.18;;
64387;SDS011;50709;52.648;4.764;2022-11-14T04:01:46;32.42;;;13.90;;
64387;SDS011;50709;52.648;4.764;2022-11-14T04:04:12;30.27;;;13.10;;
64387;SDS011;50709;52.648;4.764;2022-11-14T04:06:38;33.67;;;13.95;;
64387;SDS011;50709;52.648;4.764;2022-11-14T04:09:04;27.88;;;13.20;;
64387;SDS011;50709;52.648;4.764;2022-11-14T04:11:30;30.15;;;13.13;;
64387;SDS011;50709;52.648;4.764;2022-11-14T04:13:56;33.00;;;13.93;;
64387;SDS011;50709;52.648;4.764;2022-11-14T04:16:21;32.38;;;14.35;;
64387;SDS011;50709;52.648;4.764;2022-11-14T04:18:46;37.10;;;13.95;;
64387;SDS011;50709;52.648;4.764;2022-11-14T04:21:12;35.92;;;15.35;;
64387;SDS011;50709;52.648;4.764;2022-11-14T04:23:37;35.47;;;13.82;;
64387;SDS011;50709;52.648;4.764;2022-11-14T04:26:02;33.78;;;13.93;;
64387;SDS011;50709;52.648;4.764;2022-11-14T04:28:28;27.95;;;13.23;;
64387;SDS011;50709;52.648;4.764;2022-11-14T04:30:53;34.83;;;14.48;;
64387;SDS011;50709;52.648;4.764;2022-11-14T04:33:18;33.03;;;15.00;;
64387;SDS011;50709;52.648;4.764;2022-11-14T04:35:44;34.55;;;14.88;;
64387;SDS011;50709;52.648;4.764;2022-11-14T04:38:09;36.83;;;14.73;;
64387;SDS011;50709;52.648;4.764;2022-11-14T04:40:34;39.88;;;15.55;;
64387;SDS011;50709;52.648;4.764;2022-11-14T04:43:00;32.45;;;13.85;;
64387;SDS011;50709;52.648;4.764;2022-11-14T04:45:25;33.90;;;13.65;;
64387;SDS011;50709;52.648;4.764;2022-11-14T04:47:50;39.67;;;14.57;;
64387;SDS011;50709;52.648;4.764;2022-11-14T04:50:16;38.53;;;16.60;;
64387;SDS011;50709;52.648;4.764;2022-11-14T04:52:41;40.20;;;16.08;;
64387;SDS011;50709;52.648;4.764;2022-11-14T04:55:06;32.45;;;14.45;;
64387;SDS011;50709;52.648;4.764;2022-11-14T04:57:32;33.80;;;15.25;;
64387;SDS011;50709;52.648;4.764;2022-11-14T04:59:57;38.05;;;14.82;;
64387;SDS011;50709;52.648;4.764;2022-11-14T05:02:23;35.92;;;15.85;;
64387;SDS011;50709;52.648;4.764;2022-11-14T05:04:48;38.35;;;15.48;;
64387;SDS011;50709;52.648;4.764;2022-11-14T05:07:14;35.70;;;13.95;;
64387;SDS011;50709;52.648;4.764;2022-11-14T05:09:39;36.65;;;16.17;;
64387;SDS011;50709;52.648;4.764;2022-11-14T05:12:05;38.97;;;14.68;;
64387;SDS011;50709;52.648;4.764;2022-11-14T05:14:30;36.08;;;14.35;;
64387;SDS011;50709;52.648;4.764;2022-11-14T05:16:56;36.33;;;13.98;;
64387;SDS011;50709;52.648;4.764;2022-11-14T05:19:21;36.50;;;14.63;;
64387;SDS011;50709;52.648;4.764;2022-11-14T05:21:47;35.03;;;14.18;;
64387;SDS011;50709;52.648;4.764;2022-11-14T05:24:12;37.53;;;14.60;;
64387;SDS011;50709;52.648;4.764;2022-11-14T05:26:37;36.20;;;15.32;;
64387;SDS011;50709;52.648;4.764;2022-11-14T05:29:03;37.63;;;14.80;;
64387;SDS011;50709;52.648;4.764;2022-11-14T05:31:29;36.20;;;16.15;;
64387;SDS011;50709;52.648;4.764;2022-11-14T05:33:54;33.60;;;13.55;;
64387;SDS011;50709;52.648;4.764;2022-11-14T05:36:19;39.05;;;15.38;;
64387;SDS011;50709;52.648;4.764;2022-11-14T05:38:45;36.95;;;14.95;;
64387;SDS011;50709;52.648;4.764;2022-11-14T05:41:11;36.15;;;14.75;;
64387;SDS011;50709;52.648;4.764;2022-11-14T05:43:38;36.22;;;14.40;;
64387;SDS011;50709;52.648;4.764;2022-11-14T05:46:05;36.38;;;14.68;;
64387;SDS011;50709;52.648;4.764;2022-11-14T05:48:33;34.75;;;14.52;;
64387;SDS011;50709;52.648;4.764;2022-11-14T05:50:59;36.88;;;14.23;;
64387;SDS011;50709;52.648;4.764;2022-11-14T05:53:26;33.47;;;13.88;;
64387;SDS011;50709;52.648;4.764;2022-11-14T05:55:52;37.33;;;15.20;;
64387;SDS011;50709;52.648;4.764;2022-11-14T05:58:19;36.75;;;13.45;;
64387;SDS011;50709;52.648;4.764;2022-11-14T06:00:44;35.55;;;14.38;;
64387;SDS011;50709;52.648;4.764;2022-11-14T06:03:10;37.70;;;14.43;;
64387;SDS011;50709;52.648;4.764;2022-11-14T06:05:35;36.22;;;14.32;;
64387;SDS011;50709;52.648;4.764;2022-11-14T06:08:01;35.35;;;14.50;;
64387;SDS011;50709;52.648;4.764;2022-11-14T06:10:27;38.72;;;14.38;;
64387;SDS011;50709;52.648;4.764;2022-11-14T06:12:53;41.28;;;15.18;;
64387;SDS011;50709;52.648;4.764;2022-11-14T06:15:18;40.28;;;15.25;;
64387;SDS011;50709;52.648;4.764;2022-11-14T06:17:44;41.97;;;15.18;;
64387;SDS011;50709;52.648;4.764;2022-11-14T06:20:10;34.78;;;14.57;;
64387;SDS011;50709;52.648;4.764;2022-11-14T06:22:37;37.45;;;15.27;;
64387;SDS011;50709;52.648;4.764;2022-11-14T06:25:03;38.28;;;15.25;;
64387;SDS011;50709;52.648;4.764;2022-11-14T06:27:29;35.15;;;14.38;;
64387;SDS011;50709;52.648;4.764;2022-11-14T06:29:54;39.22;;;14.93;;
64387;SDS011;50709;52.648;4.764;2022-11-14T06:32:19;36.22;;;14.75;;
64387;SDS011;50709;52.648;4.764;2022-11-14T06:34:44;37.03;;;16.42;;
64387;SDS011;50709;52.648;4.764;2022-11-14T06:37:10;41.13;;;14.77;;
64387;SDS011;50709;52.648;4.764;2022-11-14T06:39:35;33.67;;;13.45;;
64387;SDS011;50709;52.648;4.764;2022-11-14T06:42:00;33.97;;;13.70;;
64387;SDS011;50709;52.648;4.764;2022-11-14T06:44:26;38.20;;;13.70;;
64387;SDS011;50709;52.648;4.764;2022-11-14T06:46:51;36.08;;;15.23;;
64387;SDS011;50709;52.648;4.764;2022-11-14T06:49:16;40.80;;;14.60;;
64387;SDS011;50709;52.648;4.764;2022-11-14T06:51:42;36.45;;;14.48;;
64387;SDS011;50709;52.648;4.764;2022-11-14T06:54:09;36.58;;;14.77;;
64387;SDS011;50709;52.648;4.764;2022-11-14T06:56:35;37.13;;;14.35;;
64387;SDS011;50709;52.648;4.764;2022-11-14T06:59:00;33.35;;;13.60;;
64387;SDS011;50709;52.648;4.764;2022-11-14T07:01:26;40.30;;;15.52;;
64387;SDS011;50709;52.648;4.764;2022-11-14T07:03:51;34.85;;;13.57;;
64387;SDS011;50709;52.648;4.764;2022-11-14T07:06:21;32.97;;;13.50;;
64387;SDS011;50709;52.648;4.764;2022-11-14T07:08:48;34.28;;;13.90;;
64387;SDS011;50709;52.648;4.764;2022-11-14T07:11:14;35.30;;;14.43;;
64387;SDS011;50709;52.648;4.764;2022-11-14T07:14:04;39.40;;;14.60;;
64387;SDS011;50709;52.648;4.764;2022-11-14T07:16:34;33.83;;;13.77;;
64387;SDS011;50709;52.648;4.764;2022-11-14T07:19:00;30.05;;;14.15;;
64387;SDS011;50709;52.648;4.764;2022-11-14T07:21:28;32.28;;;13.23;;
64387;SDS011;50709;52.648;4.764;2022-11-14T07:23:55;34.65;;;14.27;;
64387;SDS011;50709;52.648;4.764;2022-11-14T07:26:21;34.95;;;14.27;;
64387;SDS011;50709;52.648;4.764;2022-11-14T07:28:47;34.70;;;13.10;;
64387;SDS011;50709;52.648;4.764;2022-11-14T07:31:13;36.38;;;14.80;;
64387;SDS011;50709;52.648;4.764;2022-11-14T07:33:41;36.15;;;15.20;;
64387;SDS011;50709;52.648;4.764;2022-11-14T07:36:07;37.03;;;15.20;;
64387;SDS011;50709;52.648;4.764;2022-11-14T07:38:34;34.55;;;13.13;;
64387;SDS011;50709;52.648;4.764;2022-11-14T07:41:04;37.42;;;14.02;;
64387;SDS011;50709;52.648;4.764;2022-11-14T07:43:31;35.60;;;13.75;;
64387;SDS011;50709;52.648;4.764;2022-11-14T07:45:58;39.15;;;15.48;;
64387;SDS011;50709;52.648;4.764;2022-11-14T07:48:24;38.90;;;14.00;;
64387;SDS011;50709;52.648;4.764;2022-11-14T07:50:49;34.60;;;14.32;;
64387;SDS011;50709;52.648;4.764;2022-11-14T07:53:15;34.65;;;14.55;;
64387;SDS011;50709;52.648;4.764;2022-11-14T07:55:41;37.22;;;14.48;;
64387;SDS011;50709;52.648;4.764;2022-11-14T07:58:07;38.60;;;14.45;;
64387;SDS011;50709;52.648;4.764;2022-11-14T08:00:32;37.88;;;15.50;;
64387;SDS011;50709;52.648;4.764;2022-11-14T08:02:58;36.95;;;14.95;;
64387;SDS011;50709;52.648;4.764;2022-11-14T08:05:23;31.20;;;13.48;;
64387;SDS011;50709;52.648;4.764;2022-11-14T08:07:51;34.03;;;15.23;;
64387;SDS011;50709;52.648;4.764;2022-11-14T08:10:17;30.58;;;13.45;;
64387;SDS011;50709;52.648;4.764;2022-11-14T08:12:45;34.50;;;14.13;;
64387;SDS011;50709;52.648;4.764;2022-11-14T08:15:12;37.83;;;14.35;;
64387;SDS011;50709;52.648;4.764;2022-11-14T08:17:38;34.10;;;13.38;;
64387;SDS011;50709;52.648;4.764;2022-11-14T08:20:04;32.40;;;14.23;;
64387;SDS011;50709;52.648;4.764;2022-11-14T08:22:31;34.60;;;13.57;;
64387;SDS011;50709;52.648;4.764;2022-11-14T08:24:57;31.60;;;12.70;;
64387;SDS011;50709;52.648;4.764;2022-11-14T08:27:23;32.13;;;14.27;;
64387;SDS011;50709;52.648;4.764;2022-11-14T08:29:48;36.55;;;13.93;;
64387;SDS011;50709;52.648;4.764;2022-11-14T08:32:15;32.50;;;13.55;;
64387;SDS011;50709;52.648;4.764;2022-11-14T08:34:40;31.42;;;14.07;;
64387;SDS011;50709;52.648;4.764;2022-11-14T08:37:06;29.77;;;13.15;;
64387;SDS011;50709;52.648;4.764;2022-11-14T08:39:31;34.15;;;14.13;;
64387;SDS011;50709;52.648;4.764;2022-11-14T08:41:56;34.97;;;14.77;;
64387;SDS011;50709;52.648;4.764;2022-11-14T08:44:22;35.90;;;13.90;;
64387;SDS011;50709;52.648;4.764;2022-11-14T08:46:48;31.30;;;13.80;;
64387;SDS011;50709;52.648;4.764;2022-11-14T08:49:14;34.85;;;13.57;;
64387;SDS011;50709;52.648;4.764;2022-11-14T08:51:39;31.35;;;13.38;;
64387;SDS011;50709;52.648;4.764;2022-11-14T08:54:04;32.05;;;14.18;;
64387;SDS011;50709;52.648;4.764;2022-11-14T08:56:30;37.03;;;13.10;;
64387;SDS011;50709;52.648;4.764;2022-11-14T08:58:56;36.67;;;14.05;;
64387;SDS011;50709;52.648;4.764;2022-11-14T09:01:21;30.40;;;13.48;;
64387;SDS011;50709;52.648;4.764;2022-11-14T09:03:46;33.45;;;13.23;;
64387;SDS011;50709;52.648;4.764;2022-11-14T09:06:12;29.55;;;12.75;;
64387;SDS011;50709;52.648;4.764;2022-11-14T09:08:37;35.92;;;14.35;;
64387;SDS011;50709;52.648;4.764;2022-11-14T09:11:02;32.72;;;13.85;;
64387;SDS011;50709;52.648;4.764;2022-11-14T09:13:31;30.17;;;12.40;;
64387;SDS011;50709;52.648;4.764;2022-11-14T09:15:57;29.40;;;12.88;;
64387;SDS011;50709;52.648;4.764;2022-11-14T09:18:23;29.83;;;12.30;;
64387;SDS011;50709;52.648;4.764;2022-11-14T09:20:48;28.35;;;12.50;;
64387;SDS011;50709;52.648;4.764;2022-11-14T09:23:13;30.77;;;12.85;;
64387;SDS011;50709;52.648;4.764;2022-11-14T09:25:39;29.75;;;12.43;;
64387;SDS011;50709;52.648;4.764;2022-11-14T09:28:06;36.60;;;14.55;;
64387;SDS011;50709;52.648;4.764;2022-11-14T09:30:33;26.75;;;12.38;;
64387;SDS011;50709;52.648;4.764;2022-11-14T09:32:59;31.83;;;12.93;;
64387;SDS011;50709;52.648;4.764;2022-11-14T09:35:29;35.72;;;14.20;;
64387;SDS011;50709;52.648;4.764;2022-11-14T09:37:59;31.42;;;12.73;;
64387;SDS011;50709;52.648;4.764;2022-11-14T09:40:25;31.55;;;12.07;;
64387;SDS011;50709;52.648;4.764;2022-11-14T09:45:34;29.27;;;12.55;;
64387;SDS011;50709;52.648;4.764;2022-11-14T09:48:14;26.67;;;12.25;;
64387;SDS011;50709;52.648;4.764;2022-11-14T09:50:44;31.10;;;12.55;;
64387;SDS011;50709;52.648;4.764;2022-11-14T09:53:22;27.15;;;13.23;;
64387;SDS011;50709;52.648;4.764;2022-11-14T09:55:55;28.77;;;12.15;;
64387;SDS011;50709;52.648;4.764;2022-11-14T09:58:22;33.03;;;12.70;;
64387;SDS011;50709;52.648;4.764;2022-11-14T10:00:49;28.08;;;11.73;;
64387;SDS011;50709;52.648;4.764;2022-11-14T10:03:30;27.65;;;12.48;;
64387;SDS011;50709;52.648;4.764;2022-11-14T10:11:37;28.50;;;12.38;;
64387;SDS011;50709;52.648;4.764;2022-11-14T10:27:32;29.45;;;13.27;;
64387;SDS011;50709;52.648;4.764;2022-11-14T10:30:13;28.90;;;12.18;;
64387;SDS011;50709;52.648;4.764;2022-11-14T10:32:49;30.40;;;12.63;;
64387;SDS011;50709;52.648;4.764;2022-11-14T10:35:20;23.70;;;11.38;;
64387;SDS011;50709;52.648;4.764;2022-11-14T10:37:54;27.85;;;11.57;;
64387;SDS011;50709;52.648;4.764;2022-11-14T10:40:37;27.05;;;10.88;;
64387;SDS011;50709;52.648;4.764;2022-11-14T10:43:10;27.27;;;12.13;;
64387;SDS011;50709;52.648;4.764;2022-11-14T10:45:40;28.50;;;11.57;;
64387;SDS011;50709;52.648;4.764;2022-11-14T10:48:12;26.73;;;11.63;;
64387;SDS011;50709;52.648;4.764;2022-11-14T10:50:45;26.30;;;11.88;;
64387;SDS011;50709;52.648;4.764;2022-11-14T10:53:22;27.25;;;12.00;;
64387;SDS011;50709;52.648;4.764;2022-11-14T10:56:00;26.38;;;11.63;;
64387;SDS011;50709;52.648;4.764;2022-11-14T10:58:25;26.75;;;12.60;;
64387;SDS011;50709;52.648;4.764;2022-11-14T11:00:51;26.52;;;11.77;;
64387;SDS011;50709;52.648;4.764;2022-11-14T11:03:16;27.65;;;11.85;;
64387;SDS011;50709;52.648;4.764;2022-11-14T11:05:49;27.88;;;12.68;;
64387;SDS011;50709;52.648;4.764;2022-11-14T11:08:20;28.13;;;11.55;;
64387;SDS011;50709;52.648;4.764;2022-11-14T11:11:10;26.45;;;11.40;;
64387;SDS011;50709;52.648;4.764;2022-11-14T11:13:58;28.15;;;11.82;;
64387;SDS011;50709;52.648;4.764;2022-11-14T11:16:25;27.52;;;12.50;;
64387;SDS011;50709;52.648;4.764;2022-11-14T11:18:52;26.55;;;10.90;;
64387;SDS011;50709;52.648;4.764;2022-11-14T11:21:21;24.02;;;11.60;;
64387;SDS011;50709;52.648;4.764;2022-11-14T11:23:51;29.10;;;11.35;;
64387;SDS011;50709;52.648;4.764;2022-11-14T11:26:30;26.67;;;10.95;;
64387;SDS011;50709;52.648;4.764;2022-11-14T11:31:49;26.05;;;11.50;;
64387;SDS011;50709;52.648;4.764;2022-11-14T11:34:26;31.05;;;12.38;;
64387;SDS011;50709;52.648;4.764;2022-11-14T11:37:36;25.85;;;12.70;;
64387;SDS011;50709;52.648;4.764;2022-11-14T11:39:56;25.15;;;10.98;;
64387;SDS011;50709;52.648;4.764;2022-11-14T11:45:08;26.70;;;12.50;;
64387;SDS011;50709;52.648;4.764;2022-11-14T11:47:42;27.80;;;11.60;;
64387;SDS011;50709;52.648;4.764;2022-11-14T11:50:15;24.65;;;11.50;;
64387;SDS011;50709;52.648;4.764;2022-11-14T11:52:50;27.50;;;12.35;;
64387;SDS011;50709;52.648;4.764;2022-11-14T11:55:28;28.40;;;12.35;;
64387;SDS011;50709;52.648;4.764;2022-11-14T12:01:10;25.60;;;11.48;;
64387;SDS011;50709;52.648;4.764;2022-11-14T12:03:36;24.60;;;11.80;;
64387;SDS011;50709;52.648;4.764;2022-11-14T12:06:13;24.27;;;12.32;;
64387;SDS011;50709;52.648;4.764;2022-11-14T12:11:26;22.02;;;11.93;;
64387;SDS011;50709;52.648;4.764;2022-11-14T12:32:54;27.77;;;12.20;;
64387;SDS011;50709;52.648;4.764;2022-11-14T12:35:29;25.10;;;11.68;;
64387;SDS011;50709;52.648;4.764;2022-11-14T12:37:56;20.73;;;9.77;;
64387;SDS011;50709;52.648;4.764;2022-11-14T12:40:28;28.17;;;12.00;;
64387;SDS011;50709;52.648;4.764;2022-11-14T12:42:56;24.08;;;11.45;;
64387;SDS011;50709;52.648;4.764;2022-11-14T12:50:54;25.80;;;11.77;;
64387;SDS011;50709;52.648;4.764;2022-11-14T12:53:41;25.67;;;12.10;;
64387;SDS011;50709;52.648;4.764;2022-11-14T13:15:55;26.95;;;11.35;;
64387;SDS011;50709;52.648;4.764;2022-11-14T13:27:25;24.15;;;12.20;;
64387;SDS011;50709;52.648;4.764;2022-11-14T13:29:51;29.02;;;13.15;;
64387;SDS011;50709;52.648;4.764;2022-11-14T13:35:36;29.30;;;12.52;;
64387;SDS011;50709;52.648;4.764;2022-11-14T13:51:25;26.95;;;11.27;;
64387;SDS011;50709;52.648;4.764;2022-11-14T13:53:53;22.75;;;11.63;;
64387;SDS011;50709;52.648;4.764;2022-11-14T13:56:29;30.85;;;12.93;;
64387;SDS011;50709;52.648;4.764;2022-11-14T14:01:50;24.55;;;12.57;;
64387;SDS011;50709;52.648;4.764;2022-11-14T14:09:36;25.05;;;12.25;;
64387;SDS011;50709;52.648;4.764;2022-11-14T14:12:17;28.70;;;13.20;;
64387;SDS011;50709;52.648;4.764;2022-11-14T14:20:20;27.45;;;12.50;;
64387;SDS011;50709;52.648;4.764;2022-11-14T14:23:40;26.58;;;11.45;;
64387;SDS011;50709;52.648;4.764;2022-11-14T14:26:06;23.92;;;10.90;;
64387;SDS011;50709;52.648;4.764;2022-11-14T14:29:22;25.30;;;11.50;;
64387;SDS011;50709;52.648;4.764;2022-11-14T14:31:50;24.75;;;12.52;;
64387;SDS011;50709;52.648;4.764;2022-11-14T14:34:23;23.23;;;12.05;;
64387;SDS011;50709;52.648;4.764;2022-11-14T14:36:51;24.30;;;12.18;;
64387;SDS011;50709;52.648;4.764;2022-11-14T14:39:20;26.92;;;11.90;;
64387;SDS011;50709;52.648;4.764;2022-11-14T14:41:49;24.75;;;12.32;;
64387;SDS011;50709;52.648;4.764;2022-11-14T14:44:29;25.48;;;12.73;;
64387;SDS011;50709;52.648;4.764;2022-11-14T14:49:41;25.02;;;12.50;;
64387;SDS011;50709;52.648;4.764;2022-11-14T14:54:58;28.90;;;12.55;;
64387;SDS011;50709;52.648;4.764;2022-11-14T14:57:26;25.10;;;13.70;;
64387;SDS011;50709;52.648;4.764;2022-11-14T14:59:59;29.90;;;14.25;;
64387;SDS011;50709;52.648;4.764;2022-11-14T15:02:30;27.48;;;13.48;;
64387;SDS011;50709;52.648;4.764;2022-11-14T15:04:56;31.45;;;14.98;;
64387;SDS011;50709;52.648;4.764;2022-11-14T15:07:24;29.85;;;13.52;;
64387;SDS011;50709;52.648;4.764;2022-11-14T15:09:56;30.02;;;14.73;;
64387;SDS011;50709;52.648;4.764;2022-11-14T15:12:25;31.88;;;15.52;;
64387;SDS011;50709;52.648;4.764;2022-11-14T15:14:53;32.50;;;14.27;;
64387;SDS011;50709;52.648;4.764;2022-11-14T15:17:19;32.88;;;15.00;;
64387;SDS011;50709;52.648;4.764;2022-11-14T15:19:46;35.15;;;15.23;;
64387;SDS011;50709;52.648;4.764;2022-11-14T15:24:41;35.65;;;15.80;;
64387;SDS011;50709;52.648;4.764;2022-11-14T15:27:14;34.85;;;16.52;;
64387;SDS011;50709;52.648;4.764;2022-11-14T15:29:44;32.92;;;15.85;;
64387;SDS011;50709;52.648;4.764;2022-11-14T15:32:14;31.75;;;16.80;;
64387;SDS011;50709;52.648;4.764;2022-11-14T15:35:01;31.65;;;15.43;;
64387;SDS011;50709;52.648;4.764;2022-11-14T15:37:59;36.63;;;16.25;;
64387;SDS011;50709;52.648;4.764;2022-11-14T15:40:24;40.55;;;18.17;;
64387;SDS011;50709;52.648;4.764;2022-11-14T15:42:50;34.95;;;15.88;;
64387;SDS011;50709;52.648;4.764;2022-11-14T15:45:22;31.10;;;15.55;;
64387;SDS011;50709;52.648;4.764;2022-11-14T15:48:05;34.42;;;16.38;;
64387;SDS011;50709;52.648;4.764;2022-11-14T15:50:38;33.47;;;16.00;;
64387;SDS011;50709;52.648;4.764;2022-11-14T15:53:04;34.13;;;16.35;;
64387;SDS011;50709;52.648;4.764;2022-11-14T15:55:40;35.10;;;16.83;;
64387;SDS011;50709;52.648;4.764;2022-11-14T15:58:09;32.05;;;15.55;;
64387;SDS011;50709;52.648;4.764;2022-11-14T16:00:35;36.67;;;16.10;;
64387;SDS011;50709;52.648;4.764;2022-11-14T16:03:08;33.53;;;15.23;;
64387;SDS011;50709;52.648;4.764;2022-11-14T16:05:35;35.65;;;17.10;;
64387;SDS011;50709;52.648;4.764;2022-11-14T16:08:01;31.88;;;16.05;;
64387;SDS011;50709;52.648;4.764;2022-11-14T16:10:26;36.75;;;15.98;;
64387;SDS011;50709;52.648;4.764;2022-11-14T16:12:52;33.78;;;15.57;;
64387;SDS011;50709;52.648;4.764;2022-11-14T16:15:18;33.67;;;13.52;;
64387;SDS011;50709;52.648;4.764;2022-11-14T16:17:45;32.53;;;14.73;;
64387;SDS011;50709;52.648;4.764;2022-11-14T16:20:14;36.92;;;15.38;;
64387;SDS011;50709;52.648;4.764;2022-11-14T16:22:40;35.08;;;16.92;;
64387;SDS011;50709;52.648;4.764;2022-11-14T16:25:16;34.95;;;16.25;;
64387;SDS011;50709;52.648;4.764;2022-11-14T16:27:43;35.25;;;16.23;;
64387;SDS011;50709;52.648;4.764;2022-11-14T16:30:10;35.13;;;16.25;;
64387;SDS011;50709;52.648;4.764;2022-11-14T16:32:37;34.83;;;15.60;;